createdAt,value
2022-11-15T00:00:52.238Z,7.76
2022-11-15T00:03:21.234Z,7.77
2022-11-15T00:05:49.272Z,7.73
2022-11-15T00:08:17.000Z,7.74
2022-11-15T00:10:44.979Z,7.74
2022-11-15T00:13:14.552Z,7.74
2022-11-15T00:15:43.007Z,7.80
2022-11-15T00:18:16.168Z,7.86
2022-11-15T00:20:44.735Z,7.80
2022-11-15T00:23:12.413Z,7.75
2022-11-15T00:25:39.946Z,7.81
2022-11-15T00:28:07.455Z,7.85
2022-11-15T00:30:35.636Z,7.91
2022-11-15T00:36:03.565Z,7.84
2022-11-15T00:38:33.398Z,7.81
2022-11-15T00:41:06.249Z,7.86
2022-11-15T00:43:36.938Z,7.83
2022-11-15T00:46:04.752Z,7.80
2022-11-15T00:48:32.375Z,7.74
2022-11-15T00:51:00.108Z,7.74
2022-11-15T00:53:29.474Z,7.71
2022-11-15T00:55:57.224Z,7.70
2022-11-15T00:58:24.763Z,7.69
2022-11-15T01:00:52.309Z,7.70
2022-11-15T01:03:19.793Z,7.69
2022-11-15T01:05:48.239Z,7.67
2022-11-15T01:08:17.169Z,7.67
2022-11-15T01:10:46.009Z,7.68
2022-11-15T01:13:13.570Z,7.69
2022-11-15T01:15:42.206Z,7.71
2022-11-15T01:18:09.744Z,7.66
2022-11-15T01:20:41.547Z,7.67
2022-11-15T01:23:09.155Z,7.63
2022-11-15T01:25:36.654Z,7.73
2022-11-15T01:28:05.655Z,7.73
2022-11-15T01:30:33.147Z,7.79
2022-11-15T01:33:00.772Z,7.82
2022-11-15T01:35:28.251Z,7.80
2022-11-15T01:37:55.715Z,7.86
2022-11-15T01:40:23.358Z,7.90
2022-11-15T01:42:50.828Z,7.88
2022-11-15T01:45:19.617Z,7.91
2022-11-15T01:47:50.684Z,7.87
2022-11-15T01:50:21.981Z,7.81
2022-11-15T01:52:49.772Z,7.91
2022-11-15T01:55:21.744Z,7.90
2022-11-15T01:57:52.978Z,7.96
2022-11-15T02:00:21.947Z,7.93
2022-11-15T02:02:49.615Z,7.91
2022-11-15T02:05:17.383Z,7.91
2022-11-15T02:07:45.014Z,7.95
2022-11-15T02:10:16.328Z,7.94
2022-11-15T02:12:44.053Z,7.92
2022-11-15T02:15:12.832Z,7.95
2022-11-15T02:17:56.666Z,7.90
2022-11-15T02:20:46.309Z,7.96
2022-11-15T02:23:40.845Z,7.96
2022-11-15T02:26:26.521Z,7.85
2022-11-15T02:29:00.932Z,7.89
2022-11-15T02:31:37.169Z,7.85
2022-11-15T02:34:14.202Z,7.84
2022-11-15T02:36:49.643Z,7.80
2022-11-15T02:39:22.933Z,7.77
2022-11-15T02:41:55.305Z,7.82
2022-11-15T02:44:27.644Z,7.78
2022-11-15T02:47:16.015Z,7.84
2022-11-15T02:49:47.125Z,7.80
2022-11-15T02:52:17.011Z,7.86
2022-11-15T02:54:44.572Z,7.85
2022-11-15T02:57:17.547Z,7.74
2022-11-15T03:00:02.917Z,7.84
2022-11-15T03:02:44.456Z,7.76
2022-11-15T03:05:22.138Z,7.76
2022-11-15T03:08:01.912Z,7.79
2022-11-15T03:10:37.957Z,7.75
2022-11-15T03:13:15.951Z,7.76
2022-11-15T03:15:53.256Z,7.71
2022-11-15T03:18:27.803Z,7.66
2022-11-15T03:20:57.508Z,7.59
2022-11-15T03:23:26.403Z,7.62
2022-11-15T03:25:56.662Z,7.60
2022-11-15T03:28:27.407Z,7.56
2022-11-15T03:30:57.254Z,7.54
2022-11-15T03:33:27.024Z,7.50
2022-11-15T03:35:55.912Z,7.50
2022-11-15T03:38:26.623Z,7.52
2022-11-15T03:41:00.278Z,7.65
2022-11-15T03:43:35.752Z,7.58
2022-11-15T03:46:08.136Z,7.46
2022-11-15T03:48:45.391Z,7.51
2022-11-15T03:51:13.527Z,7.52
2022-11-15T03:53:42.902Z,7.45
2022-11-15T03:56:10.402Z,7.45
2022-11-15T03:58:37.861Z,7.52
2022-11-15T04:01:05.837Z,7.47
2022-11-15T04:03:33.676Z,7.47
2022-11-15T04:06:02.718Z,7.41
2022-11-15T04:08:30.173Z,7.38
2022-11-15T04:10:57.673Z,7.38
2022-11-15T04:13:25.171Z,7.40
2022-11-15T04:15:53.685Z,7.44
2022-11-15T04:18:21.204Z,7.39
2022-11-15T04:21:06.268Z,7.38
2022-11-15T04:24:11.887Z,7.51
2022-11-15T04:26:39.451Z,7.51
2022-11-15T04:29:24.744Z,7.46
2022-11-15T04:31:53.385Z,7.46
2022-11-15T04:34:21.134Z,7.44
2022-11-15T04:37:06.483Z,7.50
2022-11-15T04:39:35.350Z,7.57
2022-11-15T04:42:02.818Z,7.57
2022-11-15T04:44:30.291Z,7.59
2022-11-15T04:46:58.467Z,7.50
2022-11-15T04:49:25.970Z,7.58
2022-11-15T04:51:53.848Z,7.55
2022-11-15T04:54:21.363Z,7.56
2022-11-15T04:56:50.187Z,7.54
2022-11-15T04:59:17.678Z,7.55
2022-11-15T05:01:45.480Z,7.58
2022-11-15T05:04:21.250Z,7.50
2022-11-15T05:06:53.116Z,7.42
2022-11-15T05:09:22.260Z,7.40
2022-11-15T05:11:51.196Z,7.36
2022-11-15T05:14:18.830Z,7.41
2022-11-15T05:16:46.458Z,7.40
2022-11-15T05:19:13.956Z,7.41
2022-11-15T05:21:41.580Z,7.41
2022-11-15T05:24:11.951Z,7.38
2022-11-15T05:26:39.418Z,7.39
2022-11-15T05:29:08.215Z,7.33
2022-11-15T05:31:35.736Z,7.34
2022-11-15T05:34:06.538Z,7.35
2022-11-15T05:36:37.875Z,7.31
2022-11-15T05:39:09.051Z,7.35
2022-11-15T05:41:40.824Z,7.38
2022-11-15T05:44:12.432Z,7.41
2022-11-15T05:46:42.447Z,7.42
2022-11-15T05:49:15.379Z,7.37
2022-11-15T05:51:45.111Z,7.38
2022-11-15T05:54:13.315Z,7.37
2022-11-15T05:56:41.265Z,7.21
2022-11-15T05:59:11.443Z,7.17
2022-11-15T06:01:40.424Z,7.27
2022-11-15T06:04:08.556Z,7.24
2022-11-15T06:06:36.056Z,7.28
2022-11-15T06:09:03.591Z,7.27
2022-11-15T06:11:31.233Z,7.33
2022-11-15T06:13:58.707Z,7.25
2022-11-15T06:16:27.538Z,7.34
2022-11-15T06:18:55.046Z,7.37
2022-11-15T06:21:22.688Z,7.43
2022-11-15T06:23:50.292Z,7.41
2022-11-15T06:26:17.746Z,7.40
2022-11-15T06:28:45.229Z,7.43
2022-11-15T06:31:13.727Z,7.41
2022-11-15T06:33:43.137Z,7.47
2022-11-15T06:36:17.517Z,7.46
2022-11-15T06:38:49.063Z,7.48
2022-11-15T06:41:17.790Z,7.46
2022-11-15T06:43:45.631Z,7.54
2022-11-15T06:46:13.095Z,7.49
2022-11-15T06:48:41.925Z,7.51
2022-11-15T06:51:09.485Z,7.58
2022-11-15T06:53:37.511Z,7.62
2022-11-15T06:56:07.119Z,7.68
2022-11-15T06:58:34.764Z,7.71
2022-11-15T07:01:03.629Z,7.76
2022-11-15T07:03:31.462Z,7.84
2022-11-15T07:06:06.621Z,7.88
2022-11-15T07:08:34.765Z,7.96
2022-11-15T07:11:04.474Z,7.99
2022-11-15T07:13:34.731Z,8.05
2022-11-15T07:16:04.246Z,8.10
2022-11-15T07:18:31.918Z,8.17
2022-11-15T07:21:04.574Z,8.22
2022-11-15T07:23:33.548Z,8.27
2022-11-15T07:26:02.063Z,8.29
2022-11-15T07:28:29.803Z,8.26
2022-11-15T07:30:57.625Z,8.24
2022-11-15T07:33:25.087Z,8.38
2022-11-15T07:35:52.556Z,8.40
2022-11-15T07:38:21.463Z,8.42
2022-11-15T07:40:57.387Z,8.52
2022-11-15T07:43:24.846Z,8.51
2022-11-15T07:45:58.619Z,8.55
2022-11-15T07:48:35.593Z,8.63
2022-11-15T07:51:13.792Z,8.67
2022-11-15T07:53:43.058Z,8.71
2022-11-15T07:56:11.155Z,8.78
2022-11-15T07:58:38.876Z,8.86
2022-11-15T08:01:07.100Z,8.92
2022-11-15T08:03:35.529Z,8.94
2022-11-15T08:06:03.706Z,8.96
2022-11-15T08:08:31.160Z,9.01
2022-11-15T08:11:00.745Z,9.15
2022-11-15T08:13:28.810Z,9.08
2022-11-15T08:15:59.978Z,9.26
2022-11-15T08:18:27.458Z,9.25
2022-11-15T08:20:54.928Z,9.28
2022-11-15T08:23:22.432Z,9.24
2022-11-15T08:25:49.899Z,9.32
2022-11-15T08:28:19.193Z,9.45
2022-11-15T08:30:46.728Z,9.55
2022-11-15T08:33:15.508Z,9.58
2022-11-15T08:35:44.330Z,9.65
2022-11-15T08:38:11.829Z,9.73
2022-11-15T08:40:39.726Z,9.84
2022-11-15T08:43:07.483Z,9.96
2022-11-15T08:45:37.626Z,9.99
2022-11-15T08:48:05.570Z,10.09
2022-11-15T08:50:33.223Z,10.25
2022-11-15T08:53:06.832Z,10.37
2022-11-15T08:55:35.509Z,10.35
2022-11-15T08:58:03.034Z,10.48
2022-11-15T09:00:30.556Z,10.51
2022-11-15T09:03:00.351Z,10.57
2022-11-15T09:05:28.528Z,10.55
2022-11-15T09:07:56.487Z,10.69
2022-11-15T09:10:25.109Z,10.77
2022-11-15T09:12:53.184Z,10.86
2022-11-15T09:15:20.951Z,10.87
2022-11-15T09:17:48.436Z,10.88
2022-11-15T09:20:18.093Z,11.01
2022-11-15T09:22:45.630Z,11.11
2022-11-15T09:25:13.128Z,11.13
2022-11-15T09:27:40.719Z,11.25
2022-11-15T09:30:09.231Z,11.27
2022-11-15T09:32:39.346Z,11.38
2022-11-15T09:35:07.633Z,11.34
2022-11-15T09:37:36.422Z,11.20
2022-11-15T09:40:04.442Z,11.29
2022-11-15T09:42:49.934Z,11.49
2022-11-15T09:45:24.286Z,11.51
2022-11-15T09:48:20.023Z,11.54
2022-11-15T09:50:50.578Z,11.56
2022-11-15T09:53:57.516Z,11.70
2022-11-15T09:56:18.916Z,11.71
2022-11-15T09:58:56.187Z,11.70
2022-11-15T10:01:37.711Z,11.70
2022-11-15T10:04:09.139Z,11.77
2022-11-15T10:06:45.288Z,11.87
2022-11-15T10:09:22.677Z,11.87
2022-11-15T10:11:51.968Z,11.81
2022-11-15T10:14:21.874Z,11.99
2022-11-15T10:17:11.295Z,12.12
2022-11-15T10:19:49.619Z,12.23
2022-11-15T10:22:32.049Z,12.20
2022-11-15T10:25:14.574Z,12.17
2022-11-15T10:27:43.791Z,12.08
2022-11-15T10:30:15.128Z,12.22
2022-11-15T10:32:45.872Z,12.20
2022-11-15T10:35:22.394Z,12.24
2022-11-15T10:37:49.955Z,12.30
2022-11-15T10:40:22.293Z,12.39
2022-11-15T10:43:05.332Z,12.29
2022-11-15T10:45:35.069Z,12.21
2022-11-15T10:48:23.744Z,11.99
2022-11-15T10:50:53.559Z,12.05
2022-11-15T10:53:26.344Z,12.05
2022-11-15T10:55:57.774Z,12.19
2022-11-15T10:58:35.148Z,12.16
2022-11-15T11:01:15.208Z,12.31
2022-11-15T11:03:44.976Z,12.27
2022-11-15T11:06:15.144Z,12.17
2022-11-15T11:08:57.871Z,12.23
2022-11-15T11:11:27.046Z,12.19
2022-11-15T11:13:54.685Z,12.21
2022-11-15T11:16:43.103Z,12.11
2022-11-15T11:19:25.042Z,12.09
2022-11-15T11:22:00.722Z,12.07
2022-11-15T11:24:36.338Z,12.22
2022-11-15T11:27:27.906Z,12.25
2022-11-15T11:30:08.060Z,12.18
2022-11-15T11:32:55.081Z,12.20
2022-11-15T11:35:29.915Z,12.02
2022-11-15T11:38:09.387Z,12.08
2022-11-15T11:40:43.527Z,12.03
2022-11-15T11:43:20.252Z,12.03
2022-11-15T11:46:15.071Z,11.90
2022-11-15T11:48:44.586Z,11.92
2022-11-15T11:51:20.551Z,11.88
2022-11-15T11:53:55.979Z,11.95
2022-11-15T11:56:28.462Z,11.99
2022-11-15T11:59:02.453Z,12.01
2022-11-15T12:01:34.150Z,12.02
2022-11-15T12:04:06.747Z,11.91
2022-11-15T12:06:41.392Z,11.87
2022-11-15T12:09:16.590Z,11.75
2022-11-15T12:11:54.072Z,11.76
2022-11-15T12:14:34.456Z,11.67
2022-11-15T12:17:02.259Z,11.70
2022-11-15T12:19:31.079Z,11.63
2022-11-15T12:22:07.959Z,11.63
2022-11-15T12:24:42.680Z,11.75
2022-11-15T12:27:23.396Z,11.78
2022-11-15T12:29:58.853Z,11.64
2022-11-15T12:32:30.660Z,11.56
2022-11-15T12:34:59.889Z,11.51
2022-11-15T12:37:56.950Z,11.48
2022-11-15T12:40:39.192Z,11.50
2022-11-15T12:43:42.264Z,11.56
2022-11-15T12:46:21.589Z,11.60
2022-11-15T12:48:55.275Z,11.58
2022-11-15T12:51:44.651Z,11.53
2022-11-15T12:54:49.443Z,11.58
2022-11-15T12:57:31.343Z,11.63
2022-11-15T13:00:02.641Z,11.50
2022-11-15T13:02:32.273Z,11.52
2022-11-15T13:05:41.965Z,11.58
2022-11-15T13:08:09.802Z,11.54
2022-11-15T13:10:37.396Z,11.48
2022-11-15T13:13:10.233Z,11.44
2022-11-15T13:15:57.571Z,11.34
2022-11-15T13:18:54.717Z,11.33
2022-11-15T13:21:42.002Z,11.33
2022-11-15T13:24:18.503Z,11.29
2022-11-15T13:26:46.030Z,11.19
2022-11-15T13:29:20.503Z,11.05
2022-11-15T13:31:48.997Z,11.04
2022-11-15T13:34:50.039Z,11.05
2022-11-15T13:37:29.158Z,11.04
2022-11-15T13:39:56.646Z,11.00
2022-11-15T13:42:24.596Z,10.90
2022-11-15T13:45:01.365Z,10.84
2022-11-15T13:47:30.290Z,10.82
2022-11-15T13:49:58.843Z,10.81
2022-11-15T13:52:32.904Z,10.71
2022-11-15T13:55:04.670Z,10.66
2022-11-15T13:57:40.338Z,10.59
2022-11-15T14:00:35.419Z,10.45
2022-11-15T14:03:10.065Z,10.43
2022-11-15T14:05:37.876Z,10.33
2022-11-15T14:08:23.656Z,10.31
2022-11-15T14:11:08.268Z,10.08
2022-11-15T14:13:35.756Z,10.02
2022-11-15T14:16:20.120Z,9.96
2022-11-15T14:18:50.523Z,9.92
2022-11-15T14:21:18.993Z,9.89
2022-11-15T14:23:47.123Z,9.87
2022-11-15T14:26:29.984Z,9.80
2022-11-15T14:28:57.490Z,9.70
2022-11-15T14:31:26.308Z,9.65
2022-11-15T14:33:53.794Z,9.51
2022-11-15T14:36:22.885Z,9.45
2022-11-15T14:38:50.398Z,9.43
2022-11-15T14:41:22.447Z,9.35
2022-11-15T14:44:23.252Z,9.27
2022-11-15T14:46:52.082Z,9.23
2022-11-15T14:49:19.879Z,9.13
2022-11-15T14:51:47.532Z,9.03
2022-11-15T14:54:14.990Z,9.01
2022-11-15T14:56:43.555Z,9.00
2022-11-15T14:59:11.062Z,8.89
2022-11-15T15:01:41.961Z,8.87
2022-11-15T15:04:12.752Z,8.74
2022-11-15T15:06:40.278Z,8.62
2022-11-15T15:09:07.789Z,8.68
2022-11-15T15:11:35.586Z,8.65
2022-11-15T15:14:03.052Z,8.65
2022-11-15T15:16:30.606Z,8.56
2022-11-15T15:18:58.102Z,8.53
2022-11-15T15:21:32.340Z,8.39
2022-11-15T15:24:04.131Z,8.32
2022-11-15T15:26:34.574Z,8.34
2022-11-15T15:29:02.074Z,8.28
2022-11-15T15:31:29.679Z,8.24
2022-11-15T15:33:57.177Z,8.08
2022-11-15T15:36:24.675Z,8.17
2022-11-15T15:38:53.681Z,8.12
2022-11-15T15:41:22.128Z,8.07
2022-11-15T15:43:49.592Z,7.99
2022-11-15T15:46:18.611Z,7.88
2022-11-15T15:52:20.891Z,7.81
2022-11-15T15:54:49.671Z,7.81
2022-11-15T15:57:17.328Z,7.80
2022-11-15T15:59:44.820Z,7.63
2022-11-15T16:02:14.163Z,7.58
2022-11-15T16:04:41.898Z,7.63
2022-11-15T16:07:18.564Z,7.56
2022-11-15T16:10:04.638Z,7.59
2022-11-15T16:12:36.262Z,7.46
2022-11-15T16:15:04.745Z,7.46
2022-11-15T16:17:35.879Z,7.52
2022-11-15T16:20:03.682Z,7.43
2022-11-15T16:22:31.321Z,7.38
2022-11-15T16:24:58.951Z,7.37
2022-11-15T16:27:26.445Z,7.37
2022-11-15T16:29:55.246Z,7.42
2022-11-15T16:32:23.814Z,7.41
2022-11-15T16:34:51.325Z,7.44
2022-11-15T16:37:24.567Z,7.39
2022-11-15T16:39:55.977Z,7.34
2022-11-15T16:42:25.920Z,7.34
2022-11-15T16:44:54.744Z,7.22
2022-11-15T16:47:22.839Z,7.16
2022-11-15T16:49:50.332Z,7.12
2022-11-15T16:52:21.340Z,7.14
2022-11-15T16:54:49.136Z,7.16
2022-11-15T16:57:17.552Z,7.18
2022-11-15T16:59:45.063Z,7.23
2022-11-15T17:02:15.087Z,7.13
2022-11-15T17:04:42.598Z,7.17
2022-11-15T17:07:10.204Z,7.16
2022-11-15T17:09:37.712Z,7.20
2022-11-15T17:12:05.467Z,7.14
2022-11-15T17:14:32.969Z,7.19
2022-11-15T17:17:00.659Z,7.20
2022-11-15T17:19:29.491Z,7.10
2022-11-15T17:21:57.105Z,7.03
2022-11-15T17:27:16.157Z,7.04
2022-11-15T17:29:43.924Z,7.04
2022-11-15T17:32:11.363Z,7.03
2022-11-15T17:34:40.388Z,6.92
2022-11-15T17:37:07.971Z,6.98
2022-11-15T17:39:35.445Z,7.00
2022-11-15T17:42:02.905Z,6.94
2022-11-15T17:44:30.896Z,6.93
2022-11-15T17:46:58.562Z,7.04
2022-11-15T17:49:26.033Z,6.94
2022-11-15T17:51:54.864Z,7.02
2022-11-15T17:54:22.352Z,6.97
2022-11-15T17:59:41.088Z,6.79
2022-11-15T18:02:10.564Z,6.89
2022-11-15T18:04:38.119Z,6.78
2022-11-15T18:07:06.955Z,6.81
2022-11-15T18:09:34.490Z,6.67
2022-11-15T18:12:01.938Z,6.73
2022-11-15T18:14:29.705Z,6.77
2022-11-15T18:16:57.172Z,6.73
2022-11-15T18:19:24.663Z,6.69
2022-11-15T18:21:58.804Z,6.72
2022-11-15T18:24:29.530Z,6.68
2022-11-15T18:26:57.523Z,6.66
2022-11-15T18:29:25.584Z,6.70
2022-11-15T18:31:55.997Z,6.63
2022-11-15T18:34:24.659Z,6.62
2022-11-15T18:36:54.438Z,6.57
2022-11-15T18:39:22.277Z,6.51
2022-11-15T18:41:51.847Z,6.49
2022-11-15T18:44:19.709Z,6.48
2022-11-15T18:46:47.478Z,6.55
2022-11-15T18:49:17.859Z,6.49
2022-11-15T18:51:45.777Z,6.46
2022-11-15T18:54:15.097Z,6.48
2022-11-15T18:56:44.166Z,6.33
2022-11-15T18:59:13.051Z,6.30
2022-11-15T19:01:43.271Z,6.34
2022-11-15T19:04:12.835Z,6.39
2022-11-15T19:06:41.515Z,6.40
2022-11-15T19:09:10.233Z,6.40
2022-11-15T19:11:40.031Z,6.24
2022-11-15T19:14:09.537Z,6.26
2022-11-15T19:16:40.455Z,6.31
2022-11-15T19:19:11.292Z,6.39
2022-11-15T19:21:38.763Z,6.30
2022-11-15T19:24:06.994Z,6.31
2022-11-15T19:26:36.810Z,6.34
2022-11-15T19:29:05.683Z,6.18
2022-11-15T19:31:33.305Z,6.25
2022-11-15T19:34:05.176Z,6.28
2022-11-15T19:36:34.574Z,6.25
2022-11-15T19:39:08.275Z,6.29
2022-11-15T19:41:37.777Z,6.25
2022-11-15T19:44:05.829Z,6.15
2022-11-15T19:46:33.497Z,6.17
2022-11-15T19:49:02.868Z,6.12
2022-11-15T19:51:31.517Z,6.12
2022-11-15T19:54:05.095Z,6.08
2022-11-15T19:56:33.024Z,6.14
2022-11-15T19:59:00.485Z,6.11
2022-11-15T20:01:30.107Z,6.10
2022-11-15T20:03:59.807Z,6.11
2022-11-15T20:06:30.125Z,6.02
2022-11-15T20:08:58.054Z,6.07
2022-11-15T20:11:26.066Z,6.10
2022-11-15T20:13:57.742Z,6.09
2022-11-15T20:16:25.660Z,6.15
2022-11-15T20:18:53.683Z,6.11
2022-11-15T20:21:21.788Z,6.15
2022-11-15T20:23:51.580Z,6.10
2022-11-15T20:26:19.590Z,6.13
2022-11-15T20:28:48.071Z,6.09
2022-11-15T20:31:16.629Z,6.14
2022-11-15T20:33:44.505Z,6.15
2022-11-15T20:36:14.301Z,6.12
2022-11-15T20:38:42.167Z,6.10
2022-11-15T20:41:12.341Z,6.15
2022-11-15T20:43:43.148Z,6.12
2022-11-15T20:46:11.196Z,6.18
2022-11-15T20:48:38.863Z,6.17
2022-11-15T20:51:08.503Z,6.14
2022-11-15T20:53:36.232Z,6.19
2022-11-15T20:56:07.551Z,6.19
2022-11-15T20:58:37.005Z,6.12
2022-11-15T21:01:05.258Z,6.15
2022-11-15T21:03:33.314Z,6.11
2022-11-15T21:06:01.371Z,6.16
2022-11-15T21:08:52.765Z,6.20
2022-11-15T21:11:38.374Z,6.20
2022-11-15T21:14:09.561Z,6.22
2022-11-15T21:16:37.599Z,6.25
2022-11-15T21:19:06.131Z,6.28
2022-11-15T21:21:33.941Z,6.31
2022-11-15T21:24:03.381Z,6.23
2022-11-15T21:26:30.886Z,6.24
2022-11-15T21:28:58.492Z,6.22
2022-11-15T21:31:27.643Z,6.23
2022-11-15T21:33:55.190Z,6.23
2022-11-15T21:36:22.796Z,6.23
2022-11-15T21:38:50.279Z,6.23
2022-11-15T21:41:17.747Z,6.28
2022-11-15T21:43:45.199Z,6.19
2022-11-15T21:46:12.666Z,6.18
2022-11-15T21:48:41.487Z,6.13
2022-11-15T21:51:12.178Z,6.14
2022-11-15T21:53:39.672Z,6.12
2022-11-15T21:56:08.042Z,6.25
2022-11-15T21:58:36.269Z,6.21
2022-11-15T22:01:22.448Z,6.19
2022-11-15T22:03:51.791Z,6.12
2022-11-15T22:06:19.275Z,6.20
2022-11-15T22:08:47.299Z,6.15
2022-11-15T22:11:15.190Z,6.13
2022-11-15T22:13:43.244Z,6.11
2022-11-15T22:16:11.070Z,6.16
2022-11-15T22:18:39.378Z,6.18
2022-11-15T22:21:11.848Z,6.20
2022-11-15T22:23:39.608Z,6.30
2022-11-15T22:26:08.431Z,6.22
2022-11-15T22:28:36.375Z,6.26
2022-11-15T22:31:04.774Z,6.33
2022-11-15T22:33:34.369Z,6.25
2022-11-15T22:36:02.876Z,6.24
2022-11-15T22:38:32.552Z,6.21
2022-11-15T22:41:00.494Z,6.19
2022-11-15T22:43:28.452Z,6.26
2022-11-15T22:45:56.987Z,6.31
2022-11-15T22:48:27.230Z,6.33
2022-11-15T22:50:55.489Z,6.26
2022-11-15T22:53:23.146Z,6.30
2022-11-15T22:55:53.243Z,6.20
2022-11-15T22:58:21.442Z,6.25
2022-11-15T23:00:50.632Z,6.26
2022-11-15T23:03:19.342Z,6.26
2022-11-15T23:05:46.943Z,6.26
2022-11-15T23:08:14.847Z,6.20
2022-11-15T23:11:00.197Z,6.27
2022-11-15T23:13:32.228Z,6.29
2022-11-15T23:16:22.215Z,6.25
2022-11-15T23:18:50.827Z,6.35
2022-11-15T23:21:41.322Z,6.35
2022-11-15T23:24:10.047Z,6.34
2022-11-15T23:26:38.195Z,6.31
2022-11-15T23:29:08.570Z,6.29
2022-11-15T23:32:01.606Z,6.22
2022-11-15T23:34:30.285Z,6.25
2022-11-15T23:36:57.867Z,6.22
2022-11-15T23:39:25.360Z,6.27
2022-11-15T23:41:53.118Z,6.24
2022-11-15T23:44:22.047Z,6.25
2022-11-15T23:46:49.591Z,6.32
2022-11-15T23:49:17.206Z,6.31
2022-11-15T23:51:44.769Z,6.31
2022-11-15T23:54:13.768Z,6.29
2022-11-15T23:56:41.564Z,6.42
2022-11-15T23:59:09.133Z,6.38
